createdAt,value
2022-11-05T00:01:54.241Z,6.05
2022-11-05T00:04:39.517Z,5.13
2022-11-05T00:07:36.182Z,5.63
2022-11-05T00:10:21.455Z,5.40
2022-11-05T00:13:07.045Z,5.00
2022-11-05T00:15:52.538Z,5.22
2022-11-05T00:18:19.214Z,4.78
2022-11-05T00:20:45.902Z,4.57
2022-11-05T00:23:31.172Z,5.05
2022-11-05T00:25:59.902Z,4.57
2022-11-05T00:28:28.432Z,5.35
2022-11-05T00:31:00.832Z,4.70
2022-11-05T00:33:27.593Z,4.55
2022-11-05T00:35:54.500Z,4.72
2022-11-05T00:38:21.177Z,4.65
2022-11-05T00:40:47.964Z,4.45
2022-11-05T00:43:33.339Z,4.32
2022-11-05T00:46:00.048Z,4.68
2022-11-05T00:48:45.359Z,4.25
2022-11-05T00:51:12.041Z,4.78
2022-11-05T00:53:38.773Z,4.95
2022-11-05T00:56:05.645Z,4.60
2022-11-05T00:58:32.447Z,4.70
2022-11-05T01:01:00.586Z,4.82
2022-11-05T01:03:29.571Z,4.30
2022-11-05T01:06:06.713Z,4.75
2022-11-05T01:08:33.466Z,4.60
2022-11-05T01:11:00.134Z,4.78
2022-11-05T01:13:29.492Z,4.85
2022-11-05T01:15:56.977Z,4.72
2022-11-05T01:18:24.280Z,5.03
2022-11-05T01:20:51.162Z,4.82
2022-11-05T01:23:18.151Z,5.10
2022-11-05T01:25:45.878Z,5.15
2022-11-05T01:28:12.556Z,4.95
2022-11-05T01:30:39.351Z,5.32
2022-11-05T01:33:06.521Z,5.50
2022-11-05T01:35:33.382Z,5.60
2022-11-05T01:38:00.100Z,5.28
2022-11-05T01:40:26.815Z,5.35
2022-11-05T01:42:53.508Z,5.75
2022-11-05T01:45:24.096Z,5.30
2022-11-05T01:47:57.994Z,5.43
2022-11-05T01:50:35.191Z,6.03
2022-11-05T01:53:39.128Z,5.93
2022-11-05T01:56:12.477Z,6.55
2022-11-05T01:58:51.962Z,5.82
2022-11-05T02:01:19.046Z,7.15
2022-11-05T02:03:47.035Z,6.38
2022-11-05T02:06:16.379Z,6.18
2022-11-05T02:08:57.135Z,6.93
2022-11-05T02:11:24.576Z,6.82
2022-11-05T02:13:52.066Z,7.85
2022-11-05T02:16:39.258Z,11.85
2022-11-05T02:19:30.384Z,12.02
2022-11-05T02:22:24.288Z,11.85
2022-11-05T02:25:03.377Z,10.20
2022-11-05T02:28:01.325Z,8.77
2022-11-05T02:30:52.914Z,8.05
2022-11-05T02:33:44.636Z,7.35
2022-11-05T02:36:20.768Z,6.97
2022-11-05T02:39:02.673Z,6.80
2022-11-05T02:42:02.044Z,6.15
2022-11-05T02:44:46.702Z,6.15
2022-11-05T02:47:26.050Z,6.75
2022-11-05T02:50:27.377Z,6.15
2022-11-05T02:53:01.037Z,6.10
2022-11-05T02:55:37.560Z,6.25
2022-11-05T02:58:05.659Z,5.78
2022-11-05T03:00:44.287Z,6.35
2022-11-05T03:03:18.752Z,5.75
2022-11-05T03:06:18.808Z,6.88
2022-11-05T03:09:07.276Z,6.45
2022-11-05T03:11:44.173Z,6.68
2022-11-05T03:14:38.403Z,5.88
2022-11-05T03:17:43.301Z,6.25
2022-11-05T03:20:31.109Z,5.60
2022-11-05T03:23:13.045Z,5.53
2022-11-05T03:25:46.866Z,5.95
2022-11-05T03:28:14.866Z,5.47
2022-11-05T03:30:42.688Z,6.03
2022-11-05T03:33:14.434Z,5.50
2022-11-05T03:35:47.874Z,5.15
2022-11-05T03:38:22.219Z,5.05
2022-11-05T03:40:52.827Z,5.00
2022-11-05T03:43:21.027Z,5.03
2022-11-05T03:45:53.329Z,5.32
2022-11-05T03:48:21.231Z,5.72
2022-11-05T03:51:10.475Z,5.20
2022-11-05T03:53:43.180Z,4.93
2022-11-05T03:56:36.045Z,4.80
2022-11-05T03:59:03.442Z,4.97
2022-11-05T04:01:30.546Z,4.40
2022-11-05T04:03:57.318Z,4.85
2022-11-05T04:06:42.644Z,4.57
2022-11-05T04:09:29.194Z,4.88
2022-11-05T04:12:14.429Z,4.10
2022-11-05T04:14:41.104Z,4.70
2022-11-05T04:17:09.232Z,4.72
2022-11-05T04:19:59.727Z,4.30
2022-11-05T04:22:47.162Z,4.18
2022-11-05T04:25:14.959Z,4.60
2022-11-05T04:27:41.748Z,4.70
2022-11-05T04:30:21.874Z,4.00
2022-11-05T04:32:55.734Z,4.00
2022-11-05T04:35:22.546Z,4.20
2022-11-05T04:37:49.284Z,3.40
2022-11-05T04:40:16.031Z,3.72
2022-11-05T04:42:42.788Z,4.20
2022-11-05T04:45:09.484Z,3.80
2022-11-05T04:47:36.118Z,4.30
2022-11-05T04:50:02.992Z,3.85
2022-11-05T04:52:30.189Z,3.75
2022-11-05T04:54:56.868Z,3.67
2022-11-05T04:57:23.516Z,3.63
2022-11-05T04:59:50.549Z,3.42
2022-11-05T05:02:17.243Z,4.88
2022-11-05T05:04:43.943Z,3.92
2022-11-05T05:07:10.615Z,4.07
2022-11-05T05:09:37.270Z,3.50
2022-11-05T05:12:04.034Z,3.28
2022-11-05T05:14:30.674Z,3.45
2022-11-05T05:16:57.345Z,3.72
2022-11-05T05:19:24.798Z,3.00
2022-11-05T05:21:51.750Z,3.30
2022-11-05T05:24:19.914Z,3.28
2022-11-05T05:26:50.813Z,3.13
2022-11-05T05:29:18.176Z,3.67
2022-11-05T05:31:44.958Z,3.38
2022-11-05T05:34:12.970Z,3.47
2022-11-05T05:36:39.841Z,4.25
2022-11-05T05:39:07.488Z,3.40
2022-11-05T05:41:34.212Z,3.63
2022-11-05T05:44:00.917Z,3.30
2022-11-05T05:46:27.634Z,3.75
2022-11-05T05:48:54.320Z,3.40
2022-11-05T05:51:20.972Z,3.70
2022-11-05T05:53:47.609Z,3.40
2022-11-05T05:56:15.278Z,3.22
2022-11-05T05:58:41.967Z,3.55
2022-11-05T06:01:18.699Z,3.45
2022-11-05T06:03:46.427Z,3.47
2022-11-05T06:06:14.224Z,3.17
2022-11-05T06:08:41.682Z,3.03
2022-11-05T06:11:09.621Z,3.10
2022-11-05T06:13:36.879Z,3.60
2022-11-05T06:16:05.991Z,3.47
2022-11-05T06:18:34.787Z,3.10
2022-11-05T06:21:12.713Z,3.38
2022-11-05T06:23:41.036Z,2.95
2022-11-05T06:26:16.457Z,3.45
2022-11-05T06:28:43.323Z,3.15
2022-11-05T06:31:11.308Z,3.40
2022-11-05T06:33:38.431Z,3.53
2022-11-05T06:36:06.393Z,3.88
2022-11-05T06:38:35.211Z,3.85
2022-11-05T06:41:07.184Z,3.10
2022-11-05T06:43:36.694Z,3.88
2022-11-05T06:46:03.527Z,3.08
2022-11-05T06:48:30.451Z,4.13
2022-11-05T06:50:57.540Z,3.72
2022-11-05T06:53:24.243Z,4.10
2022-11-05T06:55:50.929Z,4.05
2022-11-05T06:58:17.592Z,4.38
2022-11-05T07:00:44.360Z,4.60
2022-11-05T07:03:12.348Z,4.25
2022-11-05T07:05:45.697Z,4.60
2022-11-05T07:08:12.361Z,4.78
2022-11-05T07:10:39.111Z,4.32
2022-11-05T07:13:08.414Z,5.15
2022-11-05T07:15:36.125Z,4.00
2022-11-05T07:18:02.896Z,4.18
2022-11-05T07:20:33.853Z,4.47
2022-11-05T07:23:05.626Z,4.25
2022-11-05T07:25:32.916Z,3.75
2022-11-05T07:27:59.805Z,4.15
2022-11-05T07:30:26.487Z,4.30
2022-11-05T07:32:53.196Z,4.15
2022-11-05T07:35:19.886Z,4.10
2022-11-05T07:37:48.569Z,4.05
2022-11-05T07:40:16.608Z,4.30
2022-11-05T07:42:47.302Z,4.70
2022-11-05T07:45:14.591Z,3.80
2022-11-05T07:47:55.024Z,4.25
2022-11-05T07:50:24.133Z,3.53
2022-11-05T07:52:51.317Z,3.67
2022-11-05T07:55:19.341Z,3.67
2022-11-05T07:57:48.773Z,4.45
2022-11-05T08:00:20.562Z,4.53
2022-11-05T08:03:07.294Z,3.85
2022-11-05T08:05:37.439Z,3.97
2022-11-05T08:08:04.445Z,3.55
2022-11-05T08:10:31.081Z,3.83
2022-11-05T08:12:57.826Z,3.55
2022-11-05T08:15:24.722Z,3.65
2022-11-05T08:18:05.880Z,3.92
2022-11-05T08:20:33.439Z,3.65
2022-11-05T08:23:00.414Z,3.80
2022-11-05T08:25:27.406Z,3.83
2022-11-05T08:28:02.791Z,3.40
2022-11-05T08:30:30.073Z,3.83
2022-11-05T08:33:01.524Z,3.45
2022-11-05T08:35:29.501Z,3.38
2022-11-05T08:38:02.042Z,3.38
2022-11-05T08:40:31.126Z,3.17
2022-11-05T08:42:58.774Z,3.72
2022-11-05T08:45:26.635Z,3.60
2022-11-05T08:48:07.858Z,3.42
2022-11-05T08:50:35.288Z,3.13
2022-11-05T08:53:02.054Z,3.17
2022-11-05T08:55:28.752Z,3.28
2022-11-05T08:57:59.793Z,3.38
2022-11-05T09:00:27.769Z,3.20
2022-11-05T09:03:09.820Z,3.45
2022-11-05T09:05:38.979Z,3.97
2022-11-05T09:08:06.302Z,3.53
2022-11-05T09:10:33.052Z,3.47
2022-11-05T09:13:00.803Z,3.47
2022-11-05T09:15:28.036Z,3.38
2022-11-05T09:17:55.308Z,4.15
2022-11-05T09:20:22.478Z,3.90
2022-11-05T09:22:49.826Z,3.63
2022-11-05T09:25:16.729Z,3.47
2022-11-05T09:27:43.740Z,3.38
2022-11-05T09:30:11.846Z,3.30
2022-11-05T09:32:38.970Z,3.20
2022-11-05T09:35:06.354Z,4.15
2022-11-05T09:37:33.255Z,3.17
2022-11-05T09:39:59.960Z,2.95
2022-11-05T09:42:35.947Z,2.90
2022-11-05T09:45:05.819Z,2.92
2022-11-05T09:47:39.878Z,2.88
2022-11-05T09:50:09.864Z,2.75
2022-11-05T09:52:36.657Z,2.65
2022-11-05T09:55:06.723Z,2.70
2022-11-05T09:57:42.147Z,2.72
2022-11-05T10:00:16.636Z,3.13
2022-11-05T10:02:53.282Z,3.05
2022-11-05T10:05:21.035Z,2.70
2022-11-05T10:07:58.509Z,2.50
2022-11-05T10:10:46.342Z,2.30
2022-11-05T10:13:42.274Z,2.65
2022-11-05T10:16:44.434Z,2.90
2022-11-05T10:19:17.360Z,2.55
2022-11-05T10:22:05.733Z,2.83
2022-11-05T10:24:31.146Z,3.10
2022-11-05T10:26:57.888Z,2.90
2022-11-05T10:29:29.811Z,2.50
2022-11-05T10:31:57.642Z,2.10
2022-11-05T10:34:33.206Z,2.20
2022-11-05T10:37:00.273Z,2.10
2022-11-05T10:39:29.989Z,2.17
2022-11-05T10:42:37.452Z,2.25
2022-11-05T10:45:29.223Z,2.55
2022-11-05T10:48:20.697Z,1.90
2022-11-05T10:50:47.670Z,2.05
2022-11-05T10:53:17.434Z,2.08
2022-11-05T10:55:47.621Z,2.33
2022-11-05T10:58:17.426Z,1.63
2022-11-05T11:00:45.673Z,2.03
2022-11-05T11:03:34.153Z,1.75
2022-11-05T11:06:02.839Z,1.98
2022-11-05T11:08:31.037Z,1.90
2022-11-05T11:11:02.844Z,1.70
2022-11-05T11:13:49.370Z,1.33
2022-11-05T11:16:20.792Z,1.73
2022-11-05T11:18:53.937Z,2.25
2022-11-05T11:21:24.749Z,1.52
2022-11-05T11:24:03.293Z,1.52
2022-11-05T11:26:36.469Z,1.08
2022-11-05T11:29:14.222Z,1.38
2022-11-05T11:31:41.158Z,2.08
2022-11-05T11:34:25.047Z,1.90
2022-11-05T11:36:55.755Z,2.00
2022-11-05T11:39:25.962Z,1.45
2022-11-05T11:41:55.003Z,2.08
2022-11-05T11:44:29.676Z,1.70
2022-11-05T11:47:04.027Z,1.60
2022-11-05T11:49:41.872Z,1.17
2022-11-05T11:52:14.106Z,1.27
2022-11-05T11:54:40.936Z,1.92
2022-11-05T11:57:28.397Z,1.40
2022-11-05T12:00:11.804Z,1.77
2022-11-05T12:03:02.489Z,1.45
2022-11-05T12:05:44.712Z,1.33
2022-11-05T12:08:14.456Z,1.33
2022-11-05T12:10:56.382Z,1.48
2022-11-05T12:13:42.531Z,1.27
2022-11-05T12:16:22.848Z,1.40
2022-11-05T12:19:04.635Z,1.30
2022-11-05T12:21:59.174Z,1.50
2022-11-05T12:24:45.311Z,1.50
2022-11-05T12:27:43.657Z,1.83
2022-11-05T12:30:21.978Z,1.25
2022-11-05T12:33:07.061Z,1.10
2022-11-05T12:36:04.183Z,1.42
2022-11-05T12:39:04.652Z,1.50
2022-11-05T12:41:41.412Z,1.15
2022-11-05T12:44:46.899Z,1.35
2022-11-05T12:47:57.151Z,1.38
2022-11-05T12:50:39.959Z,1.15
2022-11-05T12:53:34.916Z,1.80
2022-11-05T12:56:06.784Z,1.10
2022-11-05T12:58:40.385Z,2.35
2022-11-05T13:01:09.902Z,1.80
2022-11-05T13:03:45.039Z,1.08
2022-11-05T13:06:25.961Z,1.10
2022-11-05T13:08:52.631Z,1.13
2022-11-05T13:11:34.617Z,1.30
2022-11-05T13:14:17.107Z,1.77
2022-11-05T13:16:47.500Z,1.30
2022-11-05T13:19:28.462Z,1.65
2022-11-05T13:22:00.172Z,1.30
2022-11-05T13:24:37.953Z,1.67
2022-11-05T13:27:43.094Z,1.50
2022-11-05T13:30:15.892Z,1.15
2022-11-05T13:32:47.153Z,1.50
2022-11-05T13:35:26.097Z,1.52
2022-11-05T13:38:16.535Z,1.00
2022-11-05T13:41:03.439Z,1.23
2022-11-05T13:43:41.823Z,1.42
2022-11-05T13:46:18.640Z,1.35
2022-11-05T13:49:07.216Z,1.58
2022-11-05T13:51:49.321Z,1.00
2022-11-05T13:54:18.930Z,1.10
2022-11-05T13:56:57.786Z,1.50
2022-11-05T13:59:45.838Z,1.58
2022-11-05T14:02:31.891Z,1.23
2022-11-05T14:05:01.647Z,1.85
2022-11-05T14:07:44.808Z,1.85
2022-11-05T14:10:18.267Z,2.38
2022-11-05T14:12:48.567Z,1.70
2022-11-05T14:15:37.161Z,1.83
2022-11-05T14:18:48.428Z,2.60
2022-11-05T14:21:27.430Z,2.83
2022-11-05T14:24:18.581Z,2.25
2022-11-05T14:26:45.485Z,2.30
2022-11-05T14:29:22.346Z,1.75
2022-11-05T14:32:08.471Z,2.10
2022-11-05T14:34:44.136Z,1.70
2022-11-05T14:37:10.792Z,1.55
2022-11-05T14:39:37.983Z,1.55
2022-11-05T14:42:25.005Z,1.52
2022-11-05T14:45:10.151Z,1.58
2022-11-05T14:47:40.588Z,1.42
2022-11-05T14:50:18.673Z,1.30
2022-11-05T14:52:57.014Z,1.58
2022-11-05T14:55:33.183Z,1.52
2022-11-05T14:57:59.804Z,1.50
2022-11-05T15:00:29.597Z,1.35
2022-11-05T15:03:05.524Z,1.95
2022-11-05T15:05:33.430Z,1.90
2022-11-05T15:08:35.405Z,2.00
2022-11-05T15:11:29.489Z,1.77
2022-11-05T15:13:56.296Z,1.88
2022-11-05T15:16:37.223Z,1.73
2022-11-05T15:19:04.559Z,2.10
2022-11-05T15:21:34.536Z,1.80
2022-11-05T15:24:01.950Z,2.25
2022-11-05T15:26:50.602Z,2.10
2022-11-05T15:29:24.741Z,1.80
2022-11-05T15:31:52.082Z,2.17
2022-11-05T15:34:20.421Z,2.60
2022-11-05T15:36:52.542Z,2.30
2022-11-05T15:39:34.285Z,2.50
2022-11-05T15:42:04.948Z,2.60
2022-11-05T15:44:35.072Z,3.25
2022-11-05T15:47:06.949Z,2.83
2022-11-05T15:49:33.803Z,4.20
2022-11-05T15:52:00.586Z,5.85
2022-11-05T15:54:31.256Z,7.70
2022-11-05T15:56:59.308Z,7.55
2022-11-05T15:59:27.446Z,7.25
2022-11-05T16:01:56.684Z,8.40
2022-11-05T16:04:26.324Z,7.45
2022-11-05T16:06:57.665Z,8.05
2022-11-05T16:09:32.964Z,7.15
2022-11-05T16:12:35.983Z,7.30
2022-11-05T16:15:08.465Z,6.80
2022-11-05T16:17:54.565Z,5.93
2022-11-05T16:20:35.473Z,5.40
2022-11-05T16:23:04.718Z,5.40
2022-11-05T16:25:42.518Z,6.05
2022-11-05T16:28:25.651Z,6.97
2022-11-05T16:31:01.416Z,6.57
2022-11-05T16:33:40.868Z,7.00
2022-11-05T16:36:08.400Z,7.78
2022-11-05T16:38:35.133Z,7.43
2022-11-05T16:41:01.822Z,6.45
2022-11-05T16:43:33.692Z,7.30
2022-11-05T16:46:01.243Z,8.23
2022-11-05T16:48:28.146Z,8.27
2022-11-05T16:50:55.083Z,8.40
2022-11-05T16:53:22.109Z,7.47
2022-11-05T16:55:48.972Z,7.72
2022-11-05T16:58:21.696Z,7.65
2022-11-05T17:00:50.526Z,8.00
2022-11-05T17:03:17.719Z,7.95
2022-11-05T17:05:45.766Z,7.63
2022-11-05T17:08:12.802Z,7.55
2022-11-05T17:10:39.735Z,7.32
2022-11-05T17:13:06.555Z,7.38
2022-11-05T17:15:35.827Z,7.63
2022-11-05T17:18:04.378Z,7.70
2022-11-05T17:20:40.451Z,7.00
2022-11-05T17:23:28.933Z,7.50
2022-11-05T17:26:01.459Z,8.15
2022-11-05T17:28:29.361Z,7.50
2022-11-05T17:30:59.368Z,7.90
2022-11-05T17:33:26.403Z,7.20
2022-11-05T17:36:05.086Z,7.45
2022-11-05T17:38:31.893Z,6.05
2022-11-05T17:40:58.630Z,6.78
2022-11-05T17:43:25.442Z,6.32
2022-11-05T17:45:52.521Z,6.03
2022-11-05T17:48:20.623Z,5.65
2022-11-05T17:50:50.893Z,5.43
2022-11-05T17:53:18.797Z,5.63
2022-11-05T17:55:46.800Z,5.15
2022-11-05T17:58:13.827Z,6.00
2022-11-05T18:00:42.232Z,5.80
2022-11-05T18:03:10.523Z,5.38
2022-11-05T18:05:38.228Z,6.50
2022-11-05T18:08:05.324Z,7.65
2022-11-05T18:10:32.079Z,8.35
2022-11-05T18:12:58.878Z,8.25
2022-11-05T18:15:25.930Z,9.18
2022-11-05T18:17:54.274Z,9.20
2022-11-05T18:20:21.209Z,11.65
2022-11-05T18:22:51.529Z,12.77
2022-11-05T18:25:21.292Z,12.70
2022-11-05T18:27:47.981Z,12.52
2022-11-05T18:30:16.035Z,12.80
2022-11-05T18:32:44.786Z,13.75
2022-11-05T18:35:13.361Z,12.82
2022-11-05T18:37:57.266Z,11.68
2022-11-05T18:40:36.739Z,11.38
2022-11-05T18:43:18.095Z,11.63
2022-11-05T18:46:06.245Z,12.25
2022-11-05T18:48:39.467Z,12.48
2022-11-05T18:51:15.144Z,11.85
2022-11-05T18:53:42.010Z,12.73
2022-11-05T18:56:10.575Z,11.70
2022-11-05T18:58:38.701Z,12.18
2022-11-05T19:01:17.821Z,11.02
2022-11-05T19:03:45.674Z,13.10
2022-11-05T19:06:13.426Z,14.45
2022-11-05T19:08:40.319Z,13.15
2022-11-05T19:11:09.177Z,12.80
2022-11-05T19:13:36.388Z,13.02
2022-11-05T19:16:07.005Z,14.27
2022-11-05T19:18:33.928Z,16.10
2022-11-05T19:21:00.760Z,18.30
2022-11-05T19:23:27.479Z,17.10
2022-11-05T19:25:54.319Z,18.35
2022-11-05T19:28:24.061Z,17.88
2022-11-05T19:30:50.980Z,16.75
2022-11-05T19:33:17.768Z,16.48
2022-11-05T19:35:44.730Z,15.77
2022-11-05T19:38:11.670Z,18.50
2022-11-05T19:40:38.753Z,23.00
2022-11-05T19:43:07.436Z,27.70
2022-11-05T19:45:50.088Z,34.15
2022-11-05T19:48:19.812Z,35.17
2022-11-05T19:50:50.576Z,39.63
2022-11-05T19:53:17.715Z,43.42
2022-11-05T19:55:47.113Z,38.50
2022-11-05T19:58:15.504Z,31.95
2022-11-05T20:00:42.330Z,27.90
2022-11-05T20:03:13.249Z,25.65
2022-11-05T20:05:40.752Z,21.23
2022-11-05T20:08:07.426Z,21.35
2022-11-05T20:10:37.063Z,19.42
2022-11-05T20:13:04.011Z,17.60
2022-11-05T20:15:30.718Z,17.42
2022-11-05T20:17:57.592Z,16.70
2022-11-05T20:20:24.353Z,17.55
2022-11-05T20:22:52.466Z,17.75
2022-11-05T20:25:19.193Z,17.13
2022-11-05T20:27:47.096Z,18.45
2022-11-05T20:30:13.915Z,17.20
2022-11-05T20:32:40.778Z,18.67
2022-11-05T20:35:07.939Z,18.10
2022-11-05T20:37:35.282Z,17.98
2022-11-05T20:40:02.204Z,17.45
2022-11-05T20:42:28.939Z,16.77
2022-11-05T20:44:55.744Z,17.65
2022-11-05T20:47:22.518Z,16.50
2022-11-05T20:49:49.291Z,16.65
2022-11-05T20:52:17.384Z,15.60
2022-11-05T20:54:44.400Z,16.75
2022-11-05T20:57:11.093Z,14.93
2022-11-05T20:59:37.929Z,16.23
2022-11-05T21:02:04.747Z,17.05
2022-11-05T21:04:31.671Z,16.88
2022-11-05T21:06:58.347Z,18.05
2022-11-05T21:09:25.307Z,18.00
2022-11-05T21:12:10.250Z,19.02
2022-11-05T21:14:41.897Z,17.90
2022-11-05T21:17:10.395Z,16.85
2022-11-05T21:19:37.855Z,16.17
2022-11-05T21:22:05.159Z,15.18
2022-11-05T21:24:33.346Z,15.77
2022-11-05T21:27:00.080Z,16.75
2022-11-05T21:29:26.799Z,14.43
2022-11-05T21:31:53.840Z,14.63
2022-11-05T21:34:20.684Z,13.93
2022-11-05T21:36:47.530Z,13.75
2022-11-05T21:39:14.540Z,14.82
2022-11-05T21:41:42.842Z,13.20
2022-11-05T21:44:09.809Z,12.65
2022-11-05T21:46:37.944Z,12.05
2022-11-05T21:49:05.142Z,13.07
2022-11-05T21:51:50.883Z,11.75
2022-11-05T21:54:36.455Z,12.35
2022-11-05T21:57:21.805Z,11.93
2022-11-05T21:59:48.500Z,11.30
2022-11-05T22:02:21.393Z,11.13
2022-11-05T22:04:51.265Z,11.75
2022-11-05T22:07:21.052Z,11.95
2022-11-05T22:09:48.253Z,11.85
2022-11-05T22:12:15.198Z,11.98
2022-11-05T22:14:42.280Z,12.25
2022-11-05T22:17:09.655Z,11.15
2022-11-05T22:19:36.413Z,11.68
2022-11-05T22:22:06.880Z,12.05
2022-11-05T22:24:34.402Z,11.40
2022-11-05T22:27:08.108Z,10.23
2022-11-05T22:29:36.009Z,10.02
2022-11-05T22:32:03.037Z,9.90
2022-11-05T22:34:29.828Z,9.85
2022-11-05T22:36:57.018Z,9.23
2022-11-05T22:39:24.038Z,8.80
2022-11-05T22:41:53.980Z,8.88
2022-11-05T22:44:20.916Z,8.30
2022-11-05T22:46:47.683Z,8.38
2022-11-05T22:49:14.493Z,8.80
2022-11-05T22:51:41.204Z,8.32
2022-11-05T22:54:08.330Z,8.05
2022-11-05T22:56:38.299Z,8.45
2022-11-05T22:59:06.108Z,8.52
2022-11-05T23:01:33.375Z,8.80
2022-11-05T23:04:00.486Z,8.77
2022-11-05T23:06:50.992Z,9.18
2022-11-05T23:09:45.412Z,10.68
2022-11-05T23:12:32.164Z,9.38
2022-11-05T23:15:05.777Z,9.23
2022-11-05T23:17:51.269Z,9.15
2022-11-05T23:20:39.017Z,8.93
2022-11-05T23:23:28.211Z,8.73
2022-11-05T23:26:21.081Z,8.43
2022-11-05T23:28:47.756Z,8.63
2022-11-05T23:31:33.137Z,8.60
2022-11-05T23:33:59.827Z,7.35
2022-11-05T23:36:45.120Z,8.48
2022-11-05T23:39:11.769Z,7.60
2022-11-05T23:41:57.165Z,8.25
2022-11-05T23:44:42.635Z,7.55
2022-11-05T23:47:28.003Z,7.80
2022-11-05T23:49:54.689Z,6.65
2022-11-05T23:52:21.418Z,6.38
2022-11-05T23:54:48.082Z,7.30
2022-11-05T23:57:14.833Z,6.75
2022-11-05T23:59:41.552Z,5.60
